createdAt,value
2019-05-22T00:00:30.106Z,4.80
2019-05-22T00:02:59.409Z,4.30
2019-05-22T00:05:37.638Z,3.42
2019-05-22T00:08:04.567Z,3.20
2019-05-22T00:10:33.064Z,5.67
2019-05-22T00:12:59.949Z,6.85
2019-05-22T00:15:26.348Z,4.28
2019-05-22T00:17:53.662Z,5.60
2019-05-22T00:20:22.416Z,7.15
2019-05-22T00:22:51.820Z,4.40
2019-05-22T00:36:17.876Z,4.97
2019-05-22T00:38:45.695Z,4.28
2019-05-22T00:41:15.014Z,3.02
2019-05-22T00:43:43.625Z,3.62
2019-05-22T00:46:12.087Z,5.25
2019-05-22T00:48:40.507Z,3.92
2019-05-22T00:51:09.884Z,3.90
2019-05-22T00:53:45.234Z,6.12
2019-05-22T00:56:30.417Z,4.55
2019-05-22T00:59:07.427Z,6.53
2019-05-22T01:01:46.182Z,3.35
2019-05-22T01:04:13.928Z,4.67
2019-05-22T01:06:43.282Z,8.33
2019-05-22T01:09:12.180Z,5.00
2019-05-22T01:11:40.412Z,6.03
2019-05-22T01:14:08.760Z,4.12
2019-05-22T01:16:36.124Z,2.10
2019-05-22T01:19:02.797Z,5.97
2019-05-22T01:21:29.761Z,4.25
2019-05-22T01:23:59.065Z,4.72
2019-05-22T01:26:26.467Z,4.92
2019-05-22T01:28:53.169Z,4.62
2019-05-22T01:31:21.560Z,7.83
2019-05-22T01:33:50.140Z,5.10
2019-05-22T01:36:19.679Z,4.80
2019-05-22T01:38:48.325Z,6.25
2019-05-22T01:41:27.904Z,5.00
2019-05-22T01:43:55.269Z,10.78
2019-05-22T01:46:21.652Z,7.20
2019-05-22T01:48:51.021Z,4.97
2019-05-22T01:51:17.554Z,5.55
2019-05-22T01:53:46.003Z,2.95
2019-05-22T01:56:13.066Z,2.65
2019-05-22T01:58:40.782Z,3.83
2019-05-22T02:01:11.699Z,4.37
2019-05-22T02:03:38.695Z,3.27
2019-05-22T02:06:05.483Z,3.65
2019-05-22T02:08:32.441Z,2.87
2019-05-22T02:10:59.338Z,4.75
2019-05-22T02:13:37.039Z,3.60
2019-05-22T02:16:05.244Z,3.52
2019-05-22T02:18:33.893Z,6.10
2019-05-22T02:21:02.081Z,5.92
2019-05-22T02:23:28.753Z,4.47
2019-05-22T02:25:55.188Z,4.87
2019-05-22T02:28:22.239Z,6.28
2019-05-22T02:30:49.558Z,3.17
2019-05-22T02:33:17.911Z,2.83
2019-05-22T02:35:44.650Z,4.10
2019-05-22T02:38:11.669Z,3.75
2019-05-22T02:40:38.612Z,3.33
2019-05-22T02:43:07.443Z,4.50
2019-05-22T02:45:34.292Z,2.98
2019-05-22T02:48:01.530Z,6.30
2019-05-22T02:50:29.097Z,4.08
2019-05-22T02:52:55.587Z,5.55
2019-05-22T02:55:23.138Z,4.92
2019-05-22T02:57:49.813Z,3.92
2019-05-22T03:00:16.389Z,6.58
2019-05-22T03:02:57.797Z,3.80
2019-05-22T03:05:24.489Z,3.30
2019-05-22T03:07:52.014Z,4.00
2019-05-22T03:10:19.653Z,3.40
2019-05-22T03:12:48.149Z,5.03
2019-05-22T03:15:15.647Z,4.70
2019-05-22T03:17:43.058Z,3.58
2019-05-22T03:20:15.800Z,2.83
2019-05-22T03:22:55.844Z,4.33
2019-05-22T03:25:23.373Z,2.62
2019-05-22T03:27:50.109Z,7.15
2019-05-22T03:30:29.688Z,4.67
2019-05-22T03:32:56.425Z,2.80
2019-05-22T03:35:24.473Z,6.45
2019-05-22T03:37:51.156Z,3.65
2019-05-22T03:40:18.155Z,3.55
2019-05-22T03:42:45.493Z,5.00
2019-05-22T03:45:14.012Z,5.15
2019-05-22T03:47:41.272Z,4.10
2019-05-22T03:50:09.023Z,3.42
2019-05-22T03:52:35.785Z,2.95
2019-05-22T03:55:04.638Z,3.50
2019-05-22T03:57:33.785Z,7.45
2019-05-22T04:00:01.161Z,3.52
2019-05-22T04:02:27.783Z,3.10
2019-05-22T04:04:55.176Z,7.37
2019-05-22T04:07:23.499Z,3.40
2019-05-22T04:09:51.951Z,3.45
2019-05-22T04:12:19.460Z,3.98
2019-05-22T04:14:45.997Z,2.60
2019-05-22T04:17:12.811Z,3.12
2019-05-22T04:19:49.270Z,4.70
2019-05-22T04:22:08.947Z,3.95
2019-05-22T04:24:37.289Z,5.08
2019-05-22T04:27:05.727Z,2.87
2019-05-22T04:29:32.354Z,2.30
2019-05-22T04:32:00.846Z,2.85
2019-05-22T04:34:27.635Z,2.55
2019-05-22T04:36:54.669Z,4.05
2019-05-22T04:39:23.549Z,2.15
2019-05-22T04:41:50.828Z,3.20
2019-05-22T04:44:18.499Z,50.10
2019-05-22T04:46:44.770Z,74.17
2019-05-22T04:49:12.374Z,64.05
2019-05-22T04:51:38.873Z,7.85
2019-05-22T04:54:05.387Z,26.45
2019-05-22T04:56:31.832Z,12.65
2019-05-22T04:59:00.359Z,5.70
2019-05-22T05:01:27.259Z,3.52
2019-05-22T05:03:53.786Z,3.20
2019-05-22T05:06:21.865Z,3.75
2019-05-22T05:08:48.872Z,2.62
2019-05-22T05:11:17.835Z,2.35
2019-05-22T05:13:44.397Z,3.00
2019-05-22T05:16:10.761Z,4.30
2019-05-22T05:18:37.513Z,3.70
2019-05-22T05:21:05.136Z,3.55
2019-05-22T05:23:31.741Z,6.00
2019-05-22T05:25:58.327Z,2.17
2019-05-22T05:28:25.016Z,4.28
2019-05-22T05:30:51.424Z,6.92
2019-05-22T05:33:19.153Z,3.20
2019-05-22T05:35:46.325Z,3.42
2019-05-22T05:38:13.351Z,7.00
2019-05-22T05:40:40.856Z,3.40
2019-05-22T05:43:11.181Z,10.45
2019-05-22T05:45:38.308Z,23.27
2019-05-22T05:48:06.939Z,5.50
2019-05-22T05:50:39.586Z,4.55
2019-05-22T05:53:02.822Z,4.65
2019-05-22T05:55:46.330Z,3.80
2019-05-22T05:58:25.880Z,3.02
2019-05-22T06:00:55.838Z,4.53
2019-05-22T06:03:30.931Z,3.22
2019-05-22T06:06:00.027Z,4.53
2019-05-22T06:08:26.634Z,6.50
2019-05-22T06:11:00.921Z,5.80
2019-05-22T06:13:27.699Z,5.05
2019-05-22T06:16:08.491Z,6.55
2019-05-22T06:18:35.071Z,12.07
2019-05-22T06:21:04.480Z,8.78
2019-05-22T06:23:38.091Z,8.08
2019-05-22T06:26:06.417Z,8.30
2019-05-22T06:28:37.206Z,6.95
2019-05-22T06:31:05.011Z,8.95
2019-05-22T06:33:33.426Z,6.12
2019-05-22T06:36:05.578Z,6.83
2019-05-22T06:38:48.075Z,10.32
2019-05-22T06:41:15.191Z,5.78
2019-05-22T06:43:45.398Z,8.25
2019-05-22T06:46:12.692Z,8.20
2019-05-22T06:48:40.076Z,14.43
2019-05-22T06:51:18.655Z,7.20
2019-05-22T06:53:34.789Z,6.47
2019-05-22T06:56:01.223Z,8.88
2019-05-22T06:58:28.100Z,6.92
2019-05-22T07:00:54.672Z,8.75
2019-05-22T07:03:22.472Z,12.73
2019-05-22T07:05:49.718Z,8.88
2019-05-22T07:08:16.435Z,13.20
2019-05-22T07:10:43.538Z,11.20
2019-05-22T07:13:10.418Z,10.88
2019-05-22T07:15:38.870Z,8.65
2019-05-22T07:18:06.681Z,6.62
2019-05-22T07:20:35.009Z,9.95
2019-05-22T07:23:02.992Z,8.63
2019-05-22T07:25:30.497Z,5.50
2019-05-22T07:27:57.123Z,7.00
2019-05-22T07:30:25.520Z,5.70
2019-05-22T07:32:52.270Z,4.95
2019-05-22T07:35:18.781Z,7.28
2019-05-22T07:37:45.777Z,4.60
2019-05-22T07:40:12.309Z,6.33
2019-05-22T07:42:39.060Z,9.10
2019-05-22T07:45:06.531Z,7.47
2019-05-22T07:47:34.085Z,5.75
2019-05-22T07:50:00.537Z,9.88
2019-05-22T07:52:28.059Z,7.17
2019-05-22T07:54:55.054Z,12.55
2019-05-22T07:57:23.249Z,13.62
2019-05-22T07:59:49.795Z,7.62
2019-05-22T08:02:16.583Z,10.68
2019-05-22T08:04:44.299Z,9.48
2019-05-22T08:07:12.677Z,10.53
2019-05-22T08:09:39.060Z,9.80
2019-05-22T08:12:06.911Z,9.05
2019-05-22T08:14:33.595Z,8.80
2019-05-22T08:16:59.953Z,12.53
2019-05-22T08:19:26.475Z,13.95
2019-05-22T08:22:06.162Z,11.15
2019-05-22T08:24:21.658Z,15.20
2019-05-22T08:26:54.534Z,11.85
2019-05-22T08:29:17.443Z,12.68
2019-05-22T08:31:44.985Z,8.00
2019-05-22T08:34:12.131Z,12.05
2019-05-22T08:36:39.501Z,8.58
2019-05-22T08:39:06.323Z,9.60
2019-05-22T08:41:36.863Z,9.10
2019-05-22T08:44:16.136Z,13.00
2019-05-22T08:46:32.008Z,10.63
2019-05-22T08:48:58.810Z,8.18
2019-05-22T08:51:25.256Z,8.28
2019-05-22T08:53:51.786Z,10.45
2019-05-22T08:56:19.048Z,11.75
2019-05-22T08:58:46.671Z,7.87
2019-05-22T09:01:13.569Z,7.87
2019-05-22T09:03:40.584Z,8.83
2019-05-22T09:06:08.257Z,7.22
2019-05-22T09:08:34.970Z,9.65
2019-05-22T09:11:01.375Z,7.17
2019-05-22T09:13:27.988Z,10.85
2019-05-22T09:15:55.550Z,7.20
2019-05-22T09:18:22.112Z,8.13
2019-05-22T09:20:49.969Z,10.13
2019-05-22T09:23:16.710Z,8.55
2019-05-22T09:25:43.269Z,6.62
2019-05-22T09:28:10.382Z,5.05
2019-05-22T09:30:37.779Z,5.20
2019-05-22T09:33:05.919Z,13.35
2019-05-22T09:35:33.189Z,5.35
2019-05-22T09:37:59.866Z,5.45
2019-05-22T09:40:26.354Z,3.60
2019-05-22T09:42:54.853Z,6.10
2019-05-22T09:45:21.274Z,2.87
2019-05-22T09:47:47.714Z,5.37
2019-05-22T09:50:15.733Z,7.30
2019-05-22T09:52:56.283Z,3.37
2019-05-22T09:55:11.740Z,4.78
2019-05-22T09:57:38.170Z,6.80
2019-05-22T10:00:07.124Z,4.75
2019-05-22T10:02:33.678Z,4.90
2019-05-22T10:05:01.152Z,5.05
2019-05-22T10:07:28.780Z,5.95
2019-05-22T10:09:55.335Z,3.65
2019-05-22T10:12:21.892Z,5.35
2019-05-22T10:14:48.432Z,3.15
2019-05-22T10:17:15.356Z,4.60
2019-05-22T10:19:42.026Z,5.95
2019-05-22T10:22:09.941Z,4.55
2019-05-22T10:24:36.476Z,5.47
2019-05-22T10:27:03.879Z,4.87
2019-05-22T10:29:32.323Z,7.70
2019-05-22T10:31:58.607Z,4.70
2019-05-22T10:34:25.051Z,4.65
2019-05-22T10:36:51.430Z,3.65
2019-05-22T10:39:18.126Z,6.35
2019-05-22T10:41:45.323Z,7.35
2019-05-22T10:44:11.912Z,6.50
2019-05-22T10:46:38.414Z,4.47
2019-05-22T10:49:05.876Z,4.22
2019-05-22T10:51:32.328Z,4.72
2019-05-22T10:53:58.718Z,8.15
2019-05-22T10:56:25.153Z,6.60
2019-05-22T10:58:51.567Z,3.98
2019-05-22T11:01:17.977Z,3.60
2019-05-22T11:03:45.401Z,4.53
2019-05-22T11:06:12.018Z,7.83
2019-05-22T11:08:39.795Z,4.42
2019-05-22T11:11:07.757Z,3.95
2019-05-22T11:13:35.336Z,4.70
2019-05-22T11:16:01.733Z,3.65
2019-05-22T11:18:28.347Z,4.40
2019-05-22T11:20:54.963Z,4.55
2019-05-22T11:23:21.507Z,3.27
2019-05-22T11:25:47.916Z,3.45
2019-05-22T11:28:14.333Z,5.05
2019-05-22T11:30:41.201Z,4.05
2019-05-22T11:33:09.128Z,2.95
2019-05-22T11:35:35.740Z,3.52
2019-05-22T11:38:03.146Z,3.37
2019-05-22T11:40:29.625Z,4.90
2019-05-22T11:42:56.222Z,3.27
2019-05-22T11:45:23.117Z,6.08
2019-05-22T11:47:51.451Z,5.25
2019-05-22T11:50:17.933Z,6.50
2019-05-22T11:52:44.980Z,6.05
2019-05-22T11:55:13.814Z,2.95
2019-05-22T11:57:41.238Z,3.65
2019-05-22T12:00:09.297Z,4.80
2019-05-22T12:02:36.944Z,2.55
2019-05-22T12:05:05.193Z,4.08
2019-05-22T12:07:31.833Z,9.80
2019-05-22T12:10:00.025Z,6.10
2019-05-22T12:12:26.986Z,6.08
2019-05-22T12:14:53.356Z,3.60
2019-05-22T12:17:37.522Z,3.58
2019-05-22T12:19:50.928Z,4.55
2019-05-22T12:22:19.823Z,4.72
2019-05-22T12:24:45.911Z,4.03
2019-05-22T12:27:12.605Z,4.75
2019-05-22T12:29:39.244Z,6.45
2019-05-22T12:32:06.333Z,3.90
2019-05-22T12:34:32.748Z,7.65
2019-05-22T12:36:59.436Z,4.15
2019-05-22T12:39:26.963Z,2.22
2019-05-22T12:41:53.512Z,3.10
2019-05-22T12:44:20.022Z,2.25
2019-05-22T12:46:46.592Z,5.87
2019-05-22T12:49:13.472Z,4.97
2019-05-22T12:51:40.836Z,5.62
2019-05-22T12:54:07.358Z,5.45
2019-05-22T12:56:33.719Z,3.27
2019-05-22T12:59:00.728Z,3.02
2019-05-22T13:01:28.490Z,3.62
2019-05-22T13:03:55.228Z,6.85
2019-05-22T13:06:21.764Z,2.50
2019-05-22T13:08:49.398Z,4.30
2019-05-22T13:11:16.253Z,3.90
2019-05-22T13:13:42.723Z,7.90
2019-05-22T13:16:09.418Z,7.72
2019-05-22T13:18:35.815Z,4.33
2019-05-22T13:21:02.444Z,5.78
2019-05-22T13:23:36.807Z,4.17
2019-05-22T13:26:03.779Z,3.58
2019-05-22T13:28:30.887Z,4.15
2019-05-22T13:30:57.609Z,2.87
2019-05-22T13:33:25.810Z,0.95
2019-05-22T13:35:53.398Z,2.85
2019-05-22T13:38:19.975Z,1.87
2019-05-22T13:40:46.607Z,5.08
2019-05-22T13:43:13.052Z,3.20
2019-05-22T13:45:40.497Z,3.60
2019-05-22T13:48:07.121Z,1.70
2019-05-22T13:50:33.977Z,2.52
2019-05-22T13:53:01.915Z,1.42
2019-05-22T13:55:28.815Z,4.03
2019-05-22T13:57:57.560Z,1.75
2019-05-22T14:00:25.068Z,2.15
2019-05-22T14:02:51.342Z,1.72
2019-05-22T14:05:19.516Z,1.57
2019-05-22T14:07:46.161Z,6.92
2019-05-22T14:10:12.715Z,2.87
2019-05-22T14:12:40.515Z,1.30
2019-05-22T14:15:07.167Z,1.40
2019-05-22T14:17:34.783Z,1.30
2019-05-22T14:20:01.500Z,2.02
2019-05-22T14:22:27.907Z,4.50
2019-05-22T14:24:54.496Z,4.17
2019-05-22T14:27:20.943Z,1.85
2019-05-22T14:29:49.196Z,1.35
2019-05-22T14:32:16.487Z,3.50
2019-05-22T14:34:43.133Z,3.65
2019-05-22T14:37:10.501Z,3.55
2019-05-22T14:39:37.234Z,3.33
2019-05-22T14:42:04.045Z,1.62
2019-05-22T14:44:33.735Z,3.08
2019-05-22T14:47:12.188Z,1.85
2019-05-22T14:49:27.059Z,2.42
2019-05-22T14:51:53.909Z,0.82
2019-05-22T14:54:20.661Z,3.22
2019-05-22T14:56:47.233Z,4.35
2019-05-22T14:59:13.710Z,2.98
2019-05-22T15:01:40.081Z,1.45
2019-05-22T15:04:07.326Z,13.70
2019-05-22T15:06:34.050Z,2.15
2019-05-22T15:09:00.461Z,4.17
2019-05-22T15:11:27.003Z,2.08
2019-05-22T15:13:56.051Z,1.40
2019-05-22T15:16:22.432Z,2.05
2019-05-22T15:18:48.848Z,1.15
2019-05-22T15:21:15.867Z,0.95
2019-05-22T15:23:42.166Z,0.30
2019-05-22T15:26:08.877Z,0.88
2019-05-22T15:28:35.827Z,0.82
2019-05-22T15:31:02.639Z,0.95
2019-05-22T15:33:30.622Z,0.40
2019-05-22T15:35:58.207Z,0.40
2019-05-22T15:38:24.841Z,0.40
2019-05-22T15:40:51.583Z,1.12
2019-05-22T15:43:18.034Z,0.90
2019-05-22T15:45:44.841Z,3.17
2019-05-22T15:48:16.923Z,5.78
2019-05-22T15:50:44.272Z,6.15
2019-05-22T15:53:14.933Z,4.22
2019-05-22T15:55:41.686Z,1.42
2019-05-22T15:58:09.048Z,3.00
2019-05-22T16:00:39.971Z,2.50
2019-05-22T16:03:08.136Z,1.30
2019-05-22T16:05:34.492Z,1.65
2019-05-22T16:08:00.928Z,3.50
2019-05-22T16:10:27.555Z,3.15
2019-05-22T16:12:54.695Z,0.80
2019-05-22T16:15:23.052Z,2.25
2019-05-22T16:17:50.454Z,0.47
2019-05-22T16:20:18.786Z,0.37
2019-05-22T16:22:45.264Z,1.25
2019-05-22T16:25:12.413Z,1.30
2019-05-22T16:27:39.723Z,0.80
2019-05-22T16:30:06.724Z,1.77
2019-05-22T16:32:33.709Z,5.35
2019-05-22T16:35:00.777Z,1.57
2019-05-22T16:37:28.440Z,2.90
2019-05-22T16:39:55.008Z,0.53
2019-05-22T16:42:21.969Z,3.45
2019-05-22T16:44:48.571Z,0.93
2019-05-22T16:47:16.212Z,1.40
2019-05-22T16:49:43.157Z,0.68
2019-05-22T16:52:10.823Z,0.85
2019-05-22T16:54:37.947Z,1.62
2019-05-22T16:57:05.106Z,1.17
2019-05-22T16:59:36.597Z,0.95
2019-05-22T17:02:01.939Z,0.47
2019-05-22T17:04:28.770Z,1.92
2019-05-22T17:06:55.665Z,0.90
2019-05-22T17:09:22.350Z,1.77
2019-05-22T17:11:48.899Z,1.77
2019-05-22T17:14:16.280Z,0.80
2019-05-22T17:16:44.153Z,2.62
2019-05-22T17:19:25.539Z,3.27
2019-05-22T17:21:40.861Z,1.30
2019-05-22T17:24:07.851Z,0.82
2019-05-22T17:26:34.763Z,2.05
2019-05-22T17:31:14.357Z,0.72
2019-05-22T17:33:40.908Z,36.35
2019-05-22T17:36:08.769Z,206.63
2019-05-22T17:38:35.870Z,90.77
2019-05-22T17:41:03.212Z,29.63
2019-05-22T17:43:29.966Z,4.40
2019-05-22T17:45:56.443Z,5.35
2019-05-22T17:48:23.309Z,40.38
2019-05-22T17:50:49.830Z,225.47
2019-05-22T17:53:17.226Z,131.72
2019-05-22T17:55:44.155Z,47.38
2019-05-22T17:58:11.137Z,11.73
2019-05-22T18:00:46.526Z,4.55
2019-05-22T18:03:13.896Z,4.22
2019-05-22T18:05:41.847Z,3.33
2019-05-22T18:08:08.993Z,2.55
2019-05-22T18:10:40.173Z,5.90
2019-05-22T18:13:04.799Z,73.42
2019-05-22T18:15:32.889Z,149.65
2019-05-22T18:18:01.215Z,86.28
2019-05-22T18:20:41.781Z,25.35
2019-05-22T18:22:57.849Z,21.70
2019-05-22T18:25:24.282Z,45.98
2019-05-22T18:27:51.703Z,75.90
2019-05-22T18:30:18.274Z,36.93
2019-05-22T18:32:44.810Z,41.45
2019-05-22T18:35:11.835Z,107.95
2019-05-22T18:37:38.312Z,117.42
2019-05-22T18:40:05.334Z,27.82
2019-05-22T18:42:31.981Z,10.75
2019-05-22T18:44:58.699Z,4.70
2019-05-22T18:47:25.383Z,12.13
2019-05-22T18:49:51.968Z,6.92
2019-05-22T18:52:18.564Z,11.75
2019-05-22T18:54:44.973Z,11.75
2019-05-22T18:57:11.367Z,6.37
2019-05-22T18:59:39.103Z,4.58
2019-05-22T19:02:06.421Z,19.80
2019-05-22T19:04:33.148Z,22.15
2019-05-22T19:07:00.804Z,13.18
2019-05-22T19:09:27.241Z,12.25
2019-05-22T19:11:53.892Z,35.28
2019-05-22T19:14:20.507Z,91.00
2019-05-22T19:16:47.067Z,159.05
2019-05-22T19:19:16.472Z,26.05
2019-05-22T19:21:42.974Z,9.20
2019-05-22T19:24:09.654Z,7.33
2019-05-22T19:26:36.877Z,5.80
2019-05-22T19:29:04.158Z,4.83
2019-05-22T19:31:31.190Z,10.23
2019-05-22T19:33:57.977Z,5.55
2019-05-22T19:36:26.085Z,5.75
2019-05-22T19:38:52.866Z,3.67
2019-05-22T19:41:19.700Z,6.35
2019-05-22T19:43:46.608Z,6.90
2019-05-22T19:46:13.720Z,7.65
2019-05-22T19:48:40.508Z,8.05
2019-05-22T19:51:07.899Z,4.35
2019-05-22T19:53:35.520Z,6.72
2019-05-22T19:56:02.138Z,4.47
2019-05-22T19:58:28.856Z,2.47
2019-05-22T20:00:55.286Z,4.08
2019-05-22T20:03:22.152Z,4.03
2019-05-22T20:05:48.660Z,3.72
2019-05-22T20:08:15.897Z,6.60
2019-05-22T20:10:42.501Z,3.27
2019-05-22T20:13:09.877Z,4.83
2019-05-22T20:15:38.282Z,3.55
2019-05-22T20:18:05.565Z,5.50
2019-05-22T20:20:34.258Z,3.25
2019-05-22T20:23:01.029Z,5.80
2019-05-22T20:25:27.531Z,3.50
2019-05-22T20:27:55.317Z,2.22
2019-05-22T20:30:24.082Z,4.08
2019-05-22T20:32:50.544Z,2.10
2019-05-22T20:35:18.400Z,3.25
2019-05-22T20:37:45.470Z,6.42
2019-05-22T20:40:12.724Z,3.42
2019-05-22T20:42:40.266Z,4.97
2019-05-22T20:45:10.227Z,5.03
2019-05-22T20:47:39.203Z,6.53
2019-05-22T20:50:10.691Z,3.83
2019-05-22T20:52:37.647Z,4.90
2019-05-22T20:55:06.371Z,2.50
2019-05-22T20:57:33.009Z,3.40
2019-05-22T21:00:00.513Z,2.15
2019-05-22T21:02:29.258Z,2.05
2019-05-22T21:04:56.409Z,3.62
2019-05-22T21:07:29.392Z,3.40
2019-05-22T21:09:56.628Z,5.85
2019-05-22T21:12:23.890Z,3.40
2019-05-22T21:14:50.539Z,4.08
2019-05-22T21:17:18.722Z,3.70
2019-05-22T21:19:45.534Z,5.03
2019-05-22T21:22:15.905Z,6.10
2019-05-22T21:27:10.713Z,4.17
2019-05-22T21:29:37.605Z,3.25
2019-05-22T21:32:05.208Z,6.72
2019-05-22T21:34:31.831Z,3.87
2019-05-22T21:36:59.137Z,5.40
2019-05-22T21:39:25.935Z,2.33
2019-05-22T21:41:53.456Z,3.80
2019-05-22T21:44:20.188Z,3.10
2019-05-22T21:46:46.644Z,3.58
2019-05-22T21:49:14.913Z,2.40
2019-05-22T21:51:41.655Z,2.58
2019-05-22T21:54:08.987Z,4.28
2019-05-22T21:56:36.310Z,3.22
2019-05-22T21:59:03.670Z,5.80
2019-05-22T22:01:32.044Z,2.75
2019-05-22T22:04:00.541Z,3.05
2019-05-22T22:06:27.638Z,2.42
2019-05-22T22:08:54.494Z,2.98
2019-05-22T22:11:22.064Z,3.58
2019-05-22T22:13:48.660Z,7.78
2019-05-22T22:16:15.978Z,5.90
2019-05-22T22:18:43.571Z,4.92
2019-05-22T22:21:13.238Z,7.12
2019-05-22T22:23:44.708Z,3.52
2019-05-22T22:26:24.845Z,1.98
2019-05-22T22:28:41.261Z,2.17
2019-05-22T22:31:09.564Z,3.00
2019-05-22T22:33:36.658Z,6.62
2019-05-22T22:36:03.842Z,3.45
2019-05-22T22:38:31.302Z,7.55
2019-05-22T22:41:00.433Z,3.77
2019-05-22T22:43:29.948Z,8.50
2019-05-22T22:46:07.421Z,3.57
2019-05-22T22:48:38.263Z,3.33
2019-05-22T22:51:06.756Z,3.40
2019-05-22T22:53:33.350Z,5.47
2019-05-22T22:56:00.191Z,2.83
2019-05-22T22:58:28.405Z,4.62
2019-05-22T23:00:56.853Z,4.25
2019-05-22T23:03:23.712Z,4.72
2019-05-22T23:05:50.848Z,3.08
2019-05-22T23:08:26.910Z,4.33
2019-05-22T23:10:54.160Z,3.05
2019-05-22T23:13:21.209Z,6.08
2019-05-22T23:15:48.416Z,6.60
2019-05-22T23:18:18.876Z,3.25
2019-05-22T23:23:13.320Z,4.22
2019-05-22T23:25:41.965Z,4.58
2019-05-22T23:28:10.206Z,3.37
2019-05-22T23:30:37.067Z,3.52
2019-05-22T23:33:05.261Z,3.27
2019-05-22T23:35:31.865Z,3.47
2019-05-22T23:37:58.706Z,6.05
2019-05-22T23:40:27.168Z,4.87
2019-05-22T23:42:54.170Z,4.87
2019-05-22T23:45:21.398Z,2.72
2019-05-22T23:47:57.596Z,2.67
2019-05-22T23:50:24.676Z,3.50
2019-05-22T23:52:51.341Z,2.37
2019-05-22T23:55:19.378Z,3.77
2019-05-22T23:57:47.726Z,2.65
